Arcadia, Illinois
Current Conditions -  °F | °C
As of 11:35 PM on Thursday 27 Nov 2014 (Local Time) from KIJX Reporting Station
Overcast Overcast  
Wind Chill: 19°   Ceiling: 11000
Heat Index: 19°   Visibility: 10mi
Dew Point: 11°   Wind: 3mph
Humidity: 70%   Direction: 120°ESE
Pressure: 30.42"   Gusts: NA
Location:  39.7413°N, 90.2138°W
Report Text: KIJX 280535Z AUTO 12003KT 10SM OVC110 M07/M12 A3042 RMK AO2 T10711117
Loading
Personal Weather Stations






























Interactive Weather Map New forecast layout! Learn more

10-Day Weather Forecast

Advertisements
Track Severe Weather on mobile